Time;durP1;ratioP1;P1;durP2;ratioP2;P2;SDS_P1;SDS_P2;PMS_P1;PMS_P2;Temp;Humidity;BMP_temperature;BMP_pressure;BME280_temperature;BME280_humidity;BME280_pressure;Samples;Min_cycle;Max_cycle;Signal;HPM_P1;HPM_P2
2021/08/19 00:01:42;0.00;0.00;0.62;0.00;0.00;0.62;2.80;2.60;;;26.30;36.10;;;;;;2257527;61;20378;-53
2021/08/19 00:04:27;0.00;0.00;0.62;0.00;0.00;0.62;3.43;3.13;;;26.30;36.10;;;;;;2257320;61;20397;-50
2021/08/19 00:07:12;0.00;0.00;0.62;0.00;0.00;0.62;3.47;3.17;;;26.30;36.10;;;;;;2258134;61;20430;-49
2021/08/19 00:09:57;0.00;0.00;0.62;0.00;0.00;0.62;3.10;2.80;;;26.30;36.10;;;;;;2257113;61;20434;-54
2021/08/19 00:12:41;0.00;0.00;0.62;0.00;0.00;0.62;3.27;2.97;;;26.30;36.10;;;;;;2257350;61;20755;-53
2021/08/19 00:15:27;0.00;0.00;0.62;0.00;0.00;0.62;3.37;3.07;;;26.30;36.10;;;;;;2258085;61;20422;-51
2021/08/19 00:18:11;0.00;0.00;0.62;0.00;0.00;0.62;3.87;3.40;;;26.30;36.10;;;;;;2257654;61;20745;-54
2021/08/19 00:20:57;0.00;0.00;0.62;0.00;0.00;0.62;4.70;3.60;;;26.30;36.00;;;;;;2257308;61;20351;-53
2021/08/19 00:23:42;0.00;0.00;0.62;0.00;0.00;0.62;3.37;3.07;;;26.30;36.00;;;;;;2257694;61;20378;-51
2021/08/19 00:26:26;0.00;0.00;0.62;0.00;0.00;0.62;4.40;2.97;;;26.30;36.00;;;;;;2257348;61;20374;-50
2021/08/19 00:29:11;0.00;0.00;0.62;0.00;0.00;0.62;3.10;2.77;;;26.30;36.00;;;;;;2257984;61;20770;-51
2021/08/19 00:31:56;0.00;0.00;0.62;0.00;0.00;0.62;3.23;2.93;;;26.30;36.00;;;;;;2256878;61;20359;-51
2021/08/19 00:34:40;0.00;0.00;0.62;0.00;0.00;0.62;3.43;3.00;;;26.30;36.00;;;;;;2257399;61;20387;-51
2021/08/19 00:37:26;0.00;0.00;0.62;0.00;0.00;0.62;3.30;2.87;;;26.30;36.00;;;;;;2257862;61;20358;-55
2021/08/19 00:40:12;0.00;0.00;0.62;0.00;0.00;0.62;3.20;2.90;;;26.30;36.00;;;;;;2257744;61;20390;-54
2021/08/19 00:42:57;0.00;0.00;0.62;0.00;0.00;0.62;3.20;2.63;;;26.30;36.00;;;;;;2257618;61;20386;-49
2021/08/19 00:45:43;0.00;0.00;0.62;0.00;0.00;0.62;3.43;3.03;;;26.30;36.00;;;;;;2257840;61;20589;-50
2021/08/19 00:48:28;0.00;0.00;0.62;0.00;0.00;0.62;3.60;3.03;;;26.30;36.00;;;;;;2257224;61;20382;-55
2021/08/19 00:51:13;0.00;0.00;0.62;0.00;0.00;0.62;2.77;2.33;;;26.30;36.00;;;;;;2257863;61;20641;-51
2021/08/19 00:53:59;0.00;0.00;0.62;0.00;0.00;0.62;2.77;2.57;;;26.30;36.00;;;;;;2257816;61;20478;-53
2021/08/19 00:56:43;0.00;0.00;0.62;0.00;0.00;0.62;3.90;2.87;;;26.30;36.00;;;;;;2257201;61;20443;-51
2021/08/19 00:59:29;0.00;0.00;0.62;0.00;0.00;0.62;3.77;2.93;;;26.30;36.00;;;;;;2257782;61;20621;-56
2021/08/19 01:02:13;0.00;0.00;0.62;0.00;0.00;0.62;4.07;2.90;;;26.30;36.00;;;;;;2257778;61;20665;-52
2021/08/19 01:04:58;0.00;0.00;0.62;0.00;0.00;0.62;3.37;2.50;;;26.30;36.00;;;;;;2257164;61;20398;-53
2021/08/19 01:07:44;0.00;0.00;0.62;0.00;0.00;0.62;3.03;2.77;;;26.30;36.00;;;;;;2257741;61;20826;-53
2021/08/19 01:10:31;0.00;0.00;0.62;0.00;0.00;0.62;2.87;2.67;;;26.30;36.00;;;;;;2257230;61;20359;-50
2021/08/19 01:13:16;0.00;0.00;0.62;0.00;0.00;0.62;3.20;2.67;;;26.30;36.00;;;;;;2258048;61;20437;-51
2021/08/19 01:16:02;0.00;0.00;0.62;0.00;0.00;0.62;2.80;2.37;;;26.30;36.00;;;;;;2257715;61;20390;-51
2021/08/19 01:18:48;0.00;0.00;0.62;0.00;0.00;0.62;3.67;2.73;;;26.30;36.00;;;;;;2256892;61;20418;-52
2021/08/19 01:21:32;0.00;0.00;0.62;0.00;0.00;0.62;2.97;2.67;;;26.30;36.00;;;;;;2257845;61;20750;-51
2021/08/19 01:24:17;0.00;0.00;0.62;0.00;0.00;0.62;2.80;2.30;;;26.30;36.00;;;;;;2257597;61;20359;-51
2021/08/19 01:27:04;0.00;0.00;0.62;0.00;0.00;0.62;3.20;2.17;;;26.30;36.00;;;;;;2256976;61;20358;-50
2021/08/19 01:29:51;0.00;0.00;0.62;0.00;0.00;0.62;3.23;2.70;;;26.30;36.00;;;;;;2257899;61;20382;-51
2021/08/19 01:32:36;0.00;0.00;0.62;0.00;0.00;0.62;2.90;2.30;;;26.30;36.00;;;;;;2257430;61;20366;-50
2021/08/19 01:35:22;0.00;0.00;0.62;0.00;0.00;0.62;2.87;2.60;;;26.30;36.00;;;;;;2257769;61;20666;-52
2021/08/19 01:38:07;0.00;0.00;0.62;0.00;0.00;0.62;3.17;2.37;;;26.30;36.00;;;;;;2257526;61;20754;-50
2021/08/19 01:40:51;0.00;0.00;0.62;0.00;0.00;0.62;3.43;2.80;;;26.40;36.00;;;;;;2257014;61;20455;-51
2021/08/19 01:43:38;0.00;0.00;0.62;0.00;0.00;0.62;3.03;2.70;;;26.30;36.00;;;;;;2257976;61;20359;-51
2021/08/19 01:46:24;0.00;0.00;0.62;0.00;0.00;0.62;2.83;2.30;;;26.30;36.00;;;;;;2257511;61;20738;-50
2021/08/19 01:49:08;0.00;0.00;0.62;0.00;0.00;0.62;2.87;2.57;;;26.30;36.00;;;;;;2256925;61;20499;-51
2021/08/19 01:51:53;0.00;0.00;0.62;0.00;0.00;0.62;3.07;2.50;;;26.30;36.00;;;;;;2257897;61;20359;-48
2021/08/19 01:54:38;0.00;0.00;0.62;0.00;0.00;0.62;2.80;2.50;;;26.40;36.10;;;;;;2257276;61;20633;-54
2021/08/19 01:57:23;0.00;0.00;0.62;0.00;0.00;0.62;4.03;2.50;;;26.40;36.10;;;;;;2257677;61;20409;-53
2021/08/19 02:00:09;0.00;0.00;0.62;0.00;0.00;0.62;2.50;2.27;;;26.40;36.10;;;;;;2257492;61;20457;-52
2021/08/19 02:02:55;0.00;0.00;0.62;0.00;0.00;0.62;3.40;2.80;;;26.40;36.10;;;;;;2256380;61;20440;-52
2021/08/19 02:05:40;0.00;0.00;0.62;0.00;0.00;0.62;3.10;2.50;;;26.40;36.10;;;;;;2257857;61;20437;-53
2021/08/19 02:08:25;0.00;0.00;0.62;0.00;0.00;0.62;2.97;2.63;;;26.40;36.10;;;;;;2257371;61;20755;-54
2021/08/19 02:11:10;0.00;0.00;0.62;0.00;0.00;0.62;2.83;2.47;;;26.40;36.10;;;;;;2256883;61;20355;-55
2021/08/19 02:13:55;0.00;0.00;0.62;0.00;0.00;0.62;2.73;2.43;;;26.40;36.10;;;;;;2257892;61;20379;-54
2021/08/19 02:16:40;0.00;0.00;0.62;0.00;0.00;0.62;2.83;2.40;;;26.40;36.10;;;;;;2257325;61;20405;-52
2021/08/19 02:19:25;0.00;0.00;0.62;0.00;0.00;0.62;3.30;2.70;;;26.30;36.00;;;;;;2257511;61;20405;-49
2021/08/19 02:22:10;0.00;0.00;0.62;0.00;0.00;0.62;3.07;2.30;;;26.40;36.10;;;;;;2257479;61;20379;-54
2021/08/19 02:24:54;0.00;0.00;0.62;0.00;0.00;0.62;4.17;2.70;;;26.40;36.10;;;;;;2256780;61;20582;-52
2021/08/19 02:27:40;0.00;0.00;0.62;0.00;0.00;0.62;3.50;2.80;;;26.40;36.10;;;;;;2257703;61;20378;-54
2021/08/19 02:30:25;0.00;0.00;0.62;0.00;0.00;0.62;3.03;2.80;;;26.40;36.10;;;;;;2257318;61;20615;-52
2021/08/19 02:33:09;0.00;0.00;0.62;0.00;0.00;0.62;3.20;2.90;;;26.40;36.10;;;;;;2257563;61;20362;-55
2021/08/19 02:35:56;0.00;0.00;0.62;0.00;0.00;0.62;3.03;2.67;;;26.40;36.10;;;;;;2258443;61;20510;-52
2021/08/19 02:38:40;0.00;0.00;0.62;0.00;0.00;0.62;3.50;2.90;;;26.40;36.10;;;;;;2257869;61;20498;-54
2021/08/19 02:41:25;0.00;0.00;0.62;0.00;0.00;0.62;3.47;2.90;;;26.40;36.00;;;;;;2258210;61;20410;-54
2021/08/19 02:44:10;0.00;0.00;0.62;0.00;0.00;0.62;3.57;2.40;;;26.40;36.00;;;;;;2258020;61;20612;-51
2021/08/19 02:46:54;0.00;0.00;0.62;0.00;0.00;0.62;3.43;2.70;;;26.40;36.00;;;;;;2257521;61;20382;-51
2021/08/19 02:49:38;0.00;0.00;0.62;0.00;0.00;0.62;3.00;2.70;;;26.40;36.00;;;;;;2258513;61;20377;-51
2021/08/19 02:52:24;0.00;0.00;0.62;0.00;0.00;0.62;2.47;2.27;;;26.30;35.90;;;;;;2258023;61;20403;-54
2021/08/19 02:55:11;0.00;0.00;0.62;0.00;0.00;0.62;2.90;2.60;;;26.40;36.00;;;;;;2257575;61;20813;-53
2021/08/19 02:57:55;0.00;0.00;0.62;0.00;0.00;0.62;2.60;2.33;;;26.40;36.00;;;;;;2258237;61;20398;-50
2021/08/19 03:00:39;0.00;0.00;0.62;0.00;0.00;0.62;3.03;2.13;;;26.40;35.90;;;;;;2258031;61;20604;-54
2021/08/19 03:03:24;0.00;0.00;0.62;0.00;0.00;0.62;3.30;2.70;;;26.40;35.90;;;;;;2257936;61;20371;-51
2021/08/19 03:06:09;0.00;0.00;0.62;0.00;0.00;0.62;3.57;2.57;;;26.40;35.90;;;;;;2258074;61;20366;-50
2021/08/19 03:08:54;0.00;0.00;0.62;0.00;0.00;0.62;3.50;2.70;;;26.40;36.00;;;;;;2257533;61;20754;-52
2021/08/19 03:11:39;0.00;0.00;0.62;0.00;0.00;0.62;3.10;2.67;;;26.40;35.90;;;;;;2258293;61;20487;-52
2021/08/19 03:14:23;0.00;0.00;0.62;0.00;0.00;0.62;3.20;2.87;;;26.40;35.90;;;;;;2258003;61;20402;-52
2021/08/19 03:17:08;0.00;0.00;0.62;0.00;0.00;0.62;3.30;2.80;;;26.40;35.90;;;;;;2255235;61;20387;-50
2021/08/19 03:19:53;0.00;0.00;0.62;0.00;0.00;0.62;3.50;2.77;;;26.40;35.90;;;;;;2256106;61;20777;-53
2021/08/19 03:22:39;0.00;0.00;0.62;0.00;0.00;0.62;2.43;2.23;;;26.40;35.90;;;;;;2255549;61;20766;-53
2021/08/19 03:25:25;0.00;0.00;0.62;0.00;0.00;0.62;3.53;2.67;;;26.40;35.90;;;;;;2257525;61;20363;-52
2021/08/19 03:28:12;0.00;0.00;0.62;0.00;0.00;0.62;3.10;2.60;;;26.40;35.90;;;;;;2258165;61;20383;-49
2021/08/19 03:30:57;0.00;0.00;0.62;0.00;0.00;0.62;2.70;2.47;;;26.40;35.90;;;;;;2257098;61;20432;-50
2021/08/19 03:33:43;0.00;0.00;0.62;0.00;0.00;0.62;3.57;2.90;;;26.40;35.90;;;;;;2257920;61;20359;-54
2021/08/19 03:36:28;0.00;0.00;0.62;0.00;0.00;0.62;3.50;2.90;;;26.40;35.90;;;;;;2256824;61;20762;-55
2021/08/19 03:39:13;0.00;0.00;0.62;0.00;0.00;0.62;2.93;2.73;;;26.40;35.90;;;;;;2257151;61;20741;-53
2021/08/19 03:41:59;0.00;0.00;0.62;0.00;0.00;0.62;2.83;2.43;;;26.40;35.90;;;;;;2256262;61;20676;-54
2021/08/19 03:44:43;0.00;0.00;0.62;0.00;0.00;0.62;3.07;2.70;;;26.40;35.90;;;;;;2256293;61;20766;-55
2021/08/19 03:47:28;0.00;0.00;0.62;0.00;0.00;0.62;3.13;2.43;;;26.40;35.90;;;;;;2257328;61;20394;-49
2021/08/19 03:50:13;0.00;0.00;0.62;0.00;0.00;0.62;2.83;2.33;;;26.40;35.90;;;;;;2257884;61;20719;-51
2021/08/19 03:52:57;0.00;0.00;0.62;0.00;0.00;0.62;3.10;2.60;;;26.40;35.90;;;;;;2257934;61;20394;-53
2021/08/19 03:55:42;0.00;0.00;0.62;0.00;0.00;0.62;3.30;2.80;;;26.30;35.80;;;;;;2257976;61;20451;-51
2021/08/19 03:58:27;0.00;0.00;0.62;0.00;0.00;0.62;2.30;1.87;;;26.40;35.90;;;;;;2257306;61;20386;-52
2021/08/19 04:01:12;0.00;0.00;0.62;0.00;0.00;0.62;3.33;2.67;;;26.30;35.80;;;;;;2257293;61;20486;-51
2021/08/19 04:03:57;0.00;0.00;0.62;0.00;0.00;0.62;2.53;2.33;;;26.30;35.80;;;;;;2258077;61;20383;-53
2021/08/19 04:06:41;0.00;0.00;0.62;0.00;0.00;0.62;3.63;2.77;;;26.40;35.90;;;;;;2257469;61;20390;-50
2021/08/19 04:09:26;0.00;0.00;0.62;0.00;0.00;0.62;3.80;2.80;;;26.30;35.80;;;;;;2256966;61;20741;-51
2021/08/19 04:12:10;0.00;0.00;0.62;0.00;0.00;0.62;3.27;2.77;;;26.30;35.90;;;;;;2257650;61;20234;-54
2021/08/19 04:14:56;0.00;0.00;0.62;0.00;0.00;0.62;2.67;2.47;;;26.30;35.80;;;;;;2257914;61;20359;-55
2021/08/19 04:17:41;0.00;0.00;0.62;0.00;0.00;0.62;2.83;2.33;;;26.40;35.80;;;;;;2257671;61;20588;-52
2021/08/19 04:20:25;0.00;0.00;0.62;0.00;0.00;0.62;4.30;2.60;;;26.40;35.80;;;;;;2257690;61;20416;-51
2021/08/19 04:23:10;0.00;0.00;0.62;0.00;0.00;0.62;3.17;2.83;;;26.40;35.80;;;;;;2257162;61;20378;-53
2021/08/19 04:25:54;0.00;0.00;0.62;0.00;0.00;0.62;5.07;2.70;;;26.40;35.80;;;;;;2258018;61;20358;-52
2021/08/19 04:28:39;0.00;0.00;0.62;0.00;0.00;0.62;3.07;2.40;;;26.40;35.80;;;;;;2257756;61;20379;-51
2021/08/19 04:31:25;0.00;0.00;0.62;0.00;0.00;0.62;2.90;2.50;;;26.40;35.80;;;;;;2257097;61;20578;-52
2021/08/19 04:34:10;0.00;0.00;0.62;0.00;0.00;0.62;3.63;2.80;;;26.30;35.70;;;;;;2258136;61;20362;-51
2021/08/19 04:36:54;0.00;0.00;0.62;0.00;0.00;0.62;2.90;2.33;;;26.30;35.80;;;;;;2257585;61;20363;-50
2021/08/19 04:39:38;0.00;0.00;0.62;0.00;0.00;0.62;3.20;2.90;;;26.30;35.70;;;;;;2257264;61;20668;-50
2021/08/19 04:42:24;0.00;0.00;0.62;0.00;0.00;0.62;2.97;2.60;;;26.40;35.80;;;;;;2257864;61;20366;-51
2021/08/19 04:45:10;0.00;0.00;0.62;0.00;0.00;0.62;2.70;2.50;;;26.30;35.80;;;;;;2257116;61;20378;-51
2021/08/19 04:47:56;0.00;0.00;0.62;0.00;0.00;0.62;2.23;2.03;;;26.40;35.80;;;;;;2257950;61;20442;-52
2021/08/19 04:50:40;0.00;0.00;0.62;0.00;0.00;0.62;3.30;2.53;;;26.30;35.80;;;;;;2257741;61;20577;-51
2021/08/19 04:53:25;0.00;0.00;0.62;0.00;0.00;0.62;3.17;2.83;;;26.30;35.80;;;;;;2257098;61;20443;-52
2021/08/19 04:56:09;0.00;0.00;0.62;0.00;0.00;0.62;3.40;3.00;;;26.30;35.80;;;;;;2257854;61;20390;-53
2021/08/19 04:58:54;0.00;0.00;0.62;0.00;0.00;0.62;2.53;2.20;;;26.30;35.80;;;;;;2257384;61;20375;-52
2021/08/19 05:01:42;0.00;0.00;0.62;0.00;0.00;0.62;3.80;3.40;;;26.30;35.90;;;;;;2257218;61;20358;-51
2021/08/19 05:04:28;0.00;0.00;0.62;0.00;0.00;0.62;3.53;2.97;;;26.30;35.90;;;;;;2257470;61;20398;-51
2021/08/19 05:07:12;0.00;0.00;0.62;0.00;0.00;0.62;4.30;2.83;;;26.30;35.90;;;;;;2257276;61;20363;-54
2021/08/19 05:09:57;0.00;0.00;0.62;0.00;0.00;0.62;5.67;3.17;;;26.30;35.90;;;;;;2257964;61;20402;-55
2021/08/19 05:12:42;0.00;0.00;0.62;0.00;0.00;0.62;3.20;2.87;;;26.30;35.90;;;;;;2257555;61;20394;-51
2021/08/19 05:15:27;0.00;0.00;0.62;0.00;0.00;0.62;5.50;3.60;;;26.30;35.90;;;;;;2257003;61;20793;-50
2021/08/19 05:18:11;0.00;0.00;0.62;0.00;0.00;0.62;4.77;4.10;;;26.30;35.90;;;;;;2257823;61;20378;-50
2021/08/19 05:20:57;0.00;0.00;0.62;0.00;0.00;0.62;6.60;4.73;;;26.30;35.90;;;;;;2257406;61;20789;-54
2021/08/19 05:23:42;0.00;0.00;0.62;0.00;0.00;0.62;6.00;4.43;;;26.30;35.90;;;;;;2257221;61;20378;-53
2021/08/19 05:26:27;0.00;0.00;0.62;0.00;0.00;0.62;3.63;3.10;;;26.30;35.80;;;;;;2257850;61;20388;-50
2021/08/19 05:29:11;0.00;0.00;0.62;0.00;0.00;0.62;3.97;3.00;;;26.30;35.90;;;;;;2257499;61;20613;-55
2021/08/19 05:31:56;0.00;0.00;0.62;0.00;0.00;0.62;4.43;3.67;;;26.20;35.80;;;;;;2257948;61;20366;-57
2021/08/19 05:34:40;0.00;0.00;0.62;0.00;0.00;0.62;3.90;2.93;;;26.20;35.80;;;;;;2257616;61;20358;-53
2021/08/19 05:37:26;0.00;0.00;0.62;0.00;0.00;0.62;3.80;3.50;;;26.20;35.90;;;;;;2256935;61;20750;-52
2021/08/19 05:40:11;0.00;0.00;0.62;0.00;0.00;0.62;3.43;3.10;;;26.20;36.00;;;;;;2257707;61;20387;-49
2021/08/19 05:42:56;0.00;0.00;0.62;0.00;0.00;0.62;3.57;3.00;;;26.20;36.00;;;;;;2257607;61;20359;-50
2021/08/19 05:45:41;0.00;0.00;0.62;0.00;0.00;0.62;3.60;3.30;;;26.30;36.10;;;;;;2256984;61;20366;-52
2021/08/19 05:48:26;0.00;0.00;0.62;0.00;0.00;0.62;4.17;2.80;;;26.30;36.10;;;;;;2257141;61;20382;-53
2021/08/19 05:51:11;0.00;0.00;0.62;0.00;0.00;0.62;4.00;2.97;;;26.30;36.10;;;;;;2257516;61;20439;-56
2021/08/19 05:53:57;0.00;0.00;0.62;0.00;0.00;0.62;6.00;3.20;;;26.30;36.10;;;;;;2257411;61;20363;-52
2021/08/19 05:56:42;0.00;0.00;0.62;0.00;0.00;0.62;3.93;3.30;;;26.30;36.20;;;;;;2257502;61;20371;-53
2021/08/19 05:59:27;0.00;0.00;0.62;0.00;0.00;0.62;4.30;2.90;;;26.30;36.10;;;;;;2256889;61;20457;-51
2021/08/19 06:02:11;0.00;0.00;0.62;0.00;0.00;0.62;3.73;3.30;;;26.30;36.10;;;;;;2257854;61;20402;-57
2021/08/19 06:04:56;0.00;0.00;0.62;0.00;0.00;0.62;4.07;3.40;;;26.30;36.10;;;;;;2257430;61;20432;-51
2021/08/19 06:07:40;0.00;0.00;0.62;0.00;0.00;0.62;3.93;3.30;;;26.30;36.10;;;;;;2256575;61;20362;-53
2021/08/19 06:10:26;0.00;0.00;0.62;0.00;0.00;0.62;4.63;3.57;;;26.30;36.10;;;;;;2257816;61;20362;-54
2021/08/19 06:13:11;0.00;0.00;0.62;0.00;0.00;0.62;5.63;3.50;;;26.30;36.10;;;;;;2257709;61;20366;-53
2021/08/19 06:15:55;0.00;0.00;0.62;0.00;0.00;0.62;3.30;3.00;;;26.30;36.20;;;;;;2257203;61;20363;-55
2021/08/19 06:18:39;0.00;0.00;0.62;0.00;0.00;0.62;3.23;2.90;;;26.30;36.20;;;;;;2257331;61;20661;-52
2021/08/19 06:21:24;0.00;0.00;0.62;0.00;0.00;0.62;6.97;3.30;;;26.30;36.20;;;;;;2256864;61;20710;-53
2021/08/19 06:24:08;0.00;0.00;0.62;0.00;0.00;0.62;3.70;3.13;;;26.30;36.20;;;;;;2257798;61;20370;-52
2021/08/19 06:26:54;0.00;0.00;0.62;0.00;0.00;0.62;3.97;2.80;;;26.30;36.20;;;;;;2257312;61;20363;-49
2021/08/19 06:29:40;0.00;0.00;0.62;0.00;0.00;0.62;3.37;3.07;;;26.30;36.20;;;;;;2257042;61;20378;-49
2021/08/19 06:32:24;0.00;0.00;0.62;0.00;0.00;0.62;4.23;2.90;;;26.40;36.30;;;;;;2257425;61;20367;-52
2021/08/19 06:35:10;0.00;0.00;0.62;0.00;0.00;0.62;3.47;3.17;;;26.40;36.30;;;;;;2257233;61;20804;-55
2021/08/19 06:37:54;0.00;0.00;0.62;0.00;0.00;0.62;3.23;2.93;;;26.40;36.30;;;;;;2256465;61;20715;-53
2021/08/19 06:40:39;0.00;0.00;0.62;0.00;0.00;0.62;4.17;3.13;;;26.40;36.30;;;;;;2257640;61;20656;-52
2021/08/19 06:43:25;0.00;0.00;0.62;0.00;0.00;0.62;3.87;3.30;;;26.40;36.30;;;;;;2257155;61;20363;-55
2021/08/19 06:46:09;0.00;0.00;0.62;0.00;0.00;0.62;3.70;3.33;;;26.40;36.30;;;;;;2257596;61;20426;-53
2021/08/19 06:48:54;0.00;0.00;0.62;0.00;0.00;0.62;3.47;3.17;;;26.40;36.30;;;;;;2257337;61;20378;-48
2021/08/19 06:51:38;0.00;0.00;0.62;0.00;0.00;0.62;3.87;2.90;;;26.40;36.30;;;;;;2256845;61;20756;-54
2021/08/19 06:54:23;0.00;0.00;0.62;0.00;0.00;0.62;4.20;3.20;;;26.40;36.30;;;;;;2257580;61;20439;-54
2021/08/19 06:57:07;0.00;0.00;0.62;0.00;0.00;0.62;3.80;2.90;;;26.40;36.20;;;;;;2257212;61;20401;-56
2021/08/19 06:59:53;0.00;0.00;0.62;0.00;0.00;0.62;3.23;2.83;;;26.50;36.30;;;;;;2256742;61;20386;-54
2021/08/19 07:02:38;0.00;0.00;0.62;0.00;0.00;0.62;3.43;3.13;;;26.50;36.30;;;;;;2257730;61;20367;-52
2021/08/19 07:05:23;0.00;0.00;0.62;0.00;0.00;0.62;3.43;3.13;;;26.50;36.20;;;;;;2257176;61;20742;-55
2021/08/19 07:08:07;0.00;0.00;0.62;0.00;0.00;0.62;3.67;3.00;;;26.50;36.20;;;;;;2257453;61;20382;-49
2021/08/19 07:10:52;0.00;0.00;0.62;0.00;0.00;0.62;3.70;2.93;;;26.50;36.20;;;;;;2257361;61;20390;-56
2021/08/19 07:13:37;0.00;0.00;0.62;0.00;0.00;0.62;3.50;2.73;;;26.50;36.30;;;;;;2256812;61;20395;-52
2021/08/19 07:16:23;0.00;0.00;0.62;0.00;0.00;0.62;3.27;2.80;;;26.50;36.20;;;;;;2257552;61;20433;-53
2021/08/19 07:19:07;0.00;0.00;0.62;0.00;0.00;0.62;3.07;2.60;;;26.50;36.20;;;;;;2257670;61;20387;-53
2021/08/19 07:21:53;0.00;0.00;0.62;0.00;0.00;0.62;3.40;3.10;;;26.50;36.20;;;;;;2257338;61;20409;-51
2021/08/19 07:24:37;0.00;0.00;0.62;0.00;0.00;0.62;4.93;3.00;;;26.50;36.20;;;;;;2258396;61;20406;-55
2021/08/19 07:27:22;0.00;0.00;0.62;0.00;0.00;0.62;3.70;2.83;;;26.50;36.20;;;;;;2257937;61;20362;-56
2021/08/19 07:30:08;0.00;0.00;0.62;0.00;0.00;0.62;3.83;2.93;;;26.50;36.20;;;;;;2256978;61;20637;-54
2021/08/19 07:32:54;0.00;0.00;0.62;0.00;0.00;0.62;4.33;3.00;;;26.50;36.20;;;;;;2258043;61;20394;-59
2021/08/19 07:35:39;0.00;0.00;0.62;0.00;0.00;0.62;4.53;3.40;;;26.50;36.30;;;;;;2257613;61;20366;-55
2021/08/19 07:38:23;0.00;0.00;0.62;0.00;0.00;0.62;3.50;3.20;;;26.50;36.30;;;;;;2258305;61;20387;-58
2021/08/19 07:41:08;0.00;0.00;0.62;0.00;0.00;0.62;4.20;3.50;;;26.50;36.30;;;;;;2257918;61;20418;-54
2021/08/19 07:43:53;0.00;0.00;0.62;0.00;0.00;0.62;2.93;2.50;;;26.50;36.30;;;;;;2257463;61;20355;-56
2021/08/19 07:46:37;0.00;0.00;0.62;0.00;0.00;0.62;3.77;2.30;;;26.60;36.30;;;;;;2258241;61;20750;-58
2021/08/19 07:49:23;0.00;0.00;0.62;0.00;0.00;0.62;3.50;3.03;;;26.60;36.40;;;;;;2258040;61;20426;-56
2021/08/19 07:52:08;0.00;0.00;0.62;0.00;0.00;0.62;4.00;3.23;;;26.60;36.40;;;;;;2257552;61;20732;-58
2021/08/19 07:54:52;0.00;0.00;0.62;0.00;0.00;0.62;3.83;3.07;;;26.60;36.40;;;;;;2258051;61;20754;-56
2021/08/19 07:57:43;0.00;0.00;0.62;0.00;0.00;0.62;3.10;2.80;;;26.60;36.40;;;;;;2257507;61;20703;-55
2021/08/19 08:00:30;0.00;0.00;0.62;0.00;0.00;0.62;3.57;3.27;;;26.60;36.40;;;;;;2258177;61;20418;-56
2021/08/19 08:03:15;0.00;0.00;0.62;0.00;0.00;0.62;5.30;3.37;;;26.70;36.50;;;;;;2258065;61;20448;-55
2021/08/19 08:06:01;0.00;0.00;0.62;0.00;0.00;0.62;3.13;2.73;;;26.60;36.40;;;;;;2257406;61;20362;-55
2021/08/19 08:08:45;0.00;0.00;0.62;0.00;0.00;0.62;3.30;2.97;;;26.60;36.40;;;;;;2258093;61;20402;-54
2021/08/19 08:11:30;0.00;0.00;0.62;0.00;0.00;0.62;4.50;3.30;;;26.70;36.50;;;;;;2257940;61;20401;-57
2021/08/19 08:14:14;0.00;0.00;0.62;0.00;0.00;0.62;4.60;3.10;;;26.60;36.40;;;;;;2257525;61;20359;-56
2021/08/19 08:16:59;0.00;0.00;0.62;0.00;0.00;0.62;3.30;3.00;;;26.70;36.50;;;;;;2257761;61;20700;-55
2021/08/19 08:19:43;0.00;0.00;0.62;0.00;0.00;0.62;3.17;2.87;;;26.70;36.50;;;;;;2257136;61;20612;-57
2021/08/19 08:22:29;0.00;0.00;0.62;0.00;0.00;0.62;3.97;3.10;;;26.70;36.50;;;;;;2257883;61;20451;-58
2021/08/19 08:25:14;0.00;0.00;0.62;0.00;0.00;0.62;3.20;2.90;;;26.70;36.50;;;;;;2257754;61;20370;-53
2021/08/19 08:28:11;0.00;0.00;0.62;0.00;0.00;0.62;3.90;3.20;;;26.70;36.50;;;;;;2257111;61;20778;-54
2021/08/19 08:30:57;0.00;0.00;0.62;0.00;0.00;0.62;3.27;2.97;;;26.70;36.50;;;;;;2257539;61;20398;-57
2021/08/19 08:33:41;0.00;0.00;0.62;0.00;0.00;0.62;3.77;2.90;;;26.70;36.50;;;;;;2257886;61;20587;-55
2021/08/19 08:36:26;0.00;0.00;0.62;0.00;0.00;0.62;3.80;2.90;;;26.80;36.50;;;;;;2257413;61;20578;-53
2021/08/19 08:39:12;0.00;0.00;0.62;0.00;0.00;0.62;4.10;3.70;;;26.80;36.50;;;;;;2257446;61;20386;-57
2021/08/19 08:41:57;0.00;0.00;0.62;0.00;0.00;0.62;5.10;3.53;;;26.80;36.50;;;;;;2257219;61;20366;-57
2021/08/19 08:44:43;0.00;0.00;0.62;0.00;0.00;0.62;4.20;3.07;;;26.80;36.50;;;;;;2258085;61;20399;-56
2021/08/19 08:47:32;0.00;0.00;0.62;0.00;0.00;0.62;3.97;3.53;;;26.80;36.50;;;;;;2257780;61;20387;-56
2021/08/19 08:50:17;0.00;0.00;0.62;0.00;0.00;0.62;3.43;2.93;;;26.80;36.50;;;;;;2257205;61;20581;-52
2021/08/19 08:53:03;0.00;0.00;0.62;0.00;0.00;0.62;5.63;3.60;;;26.80;36.50;;;;;;2258175;61;20579;-56
2021/08/19 08:55:50;0.00;0.00;0.62;0.00;0.00;0.62;5.73;4.27;;;26.80;36.50;;;;;;2257815;61;20359;-56
2021/08/19 08:58:35;0.00;0.00;0.62;0.00;0.00;0.62;5.17;4.67;;;26.80;36.40;;;;;;2257118;61;20383;-55
2021/08/19 09:01:19;0.00;0.00;0.62;0.00;0.00;0.62;5.57;4.27;;;26.80;36.50;;;;;;2258165;61;20425;-56
2021/08/19 09:04:04;0.00;0.00;0.62;0.00;0.00;0.62;8.00;7.20;;;26.80;36.40;;;;;;2256954;61;20410;-57
2021/08/19 09:06:50;0.00;0.00;0.62;0.00;0.00;0.62;7.30;6.60;;;26.70;36.30;;;;;;2257898;61;20363;-57
2021/08/19 09:09:35;0.00;0.00;0.62;0.00;0.00;0.62;7.10;6.40;;;26.70;36.30;;;;;;2257758;61;20839;-59
2021/08/19 09:12:23;0.00;0.00;0.62;0.00;0.00;0.62;7.87;6.77;;;26.60;36.20;;;;;;2257098;61;20757;-52
2021/08/19 09:15:10;0.00;0.00;0.62;0.00;0.00;0.62;7.30;6.30;;;26.60;36.30;;;;;;2258067;61;20362;-59
2021/08/19 09:17:56;0.00;0.00;0.62;0.00;0.00;0.62;6.47;5.83;;;26.50;36.30;;;;;;2257512;61;20459;-54
2021/08/19 09:20:43;0.00;0.00;0.62;0.00;0.00;0.62;7.40;6.70;;;26.50;36.40;;;;;;2257175;61;20398;-55
2021/08/19 09:23:28;0.00;0.00;0.62;0.00;0.00;0.62;7.90;5.50;;;26.40;36.40;;;;;;2257967;61;20374;-53
2021/08/19 09:26:26;0.00;0.00;0.62;0.00;0.00;0.62;7.43;6.77;;;26.30;36.50;;;;;;2257201;61;20361;-55
2021/08/19 09:29:23;0.00;0.00;0.62;0.00;0.00;0.62;7.00;6.30;;;26.30;36.60;;;;;;2257930;61;20387;-56
2021/08/19 09:32:11;0.00;0.00;0.62;0.00;0.00;0.62;7.30;6.60;;;26.20;36.60;;;;;;2257494;61;20421;-63
2021/08/19 09:34:55;0.00;0.00;0.62;0.00;0.00;0.62;6.93;6.10;;;26.20;36.60;;;;;;2257209;61;20367;-61
2021/08/19 09:37:42;0.00;0.00;0.62;0.00;0.00;0.62;7.00;6.23;;;26.10;36.60;;;;;;2257795;61;20359;-53
2021/08/19 09:40:26;0.00;0.00;0.62;0.00;0.00;0.62;7.07;6.47;;;26.00;36.60;;;;;;2257674;61;20453;-55
2021/08/19 09:43:12;0.00;0.00;0.62;0.00;0.00;0.62;6.70;6.10;;;26.00;36.70;;;;;;2257526;61;20579;-60
2021/08/19 09:45:58;0.00;0.00;0.62;0.00;0.00;0.62;7.63;6.07;;;25.90;36.70;;;;;;2257449;61;20418;-59
2021/08/19 09:48:44;0.00;0.00;0.62;0.00;0.00;0.62;7.33;5.50;;;25.90;36.80;;;;;;2257009;61;20383;-56
2021/08/19 09:51:29;0.00;0.00;0.62;0.00;0.00;0.62;8.03;6.10;;;25.80;36.80;;;;;;2257871;61;20363;-57
2021/08/19 09:54:27;0.00;0.00;0.62;0.00;0.00;0.62;9.10;7.50;;;25.80;37.00;;;;;;2257555;61;20390;-58
2021/08/19 09:57:12;0.00;0.00;0.62;0.00;0.00;0.62;10.90;6.80;;;25.80;37.10;;;;;;2256628;61;20762;-55
2021/08/19 09:59:56;0.00;0.00;0.62;0.00;0.00;0.62;8.40;7.07;;;25.70;37.10;;;;;;2257712;61;20461;-59
2021/08/19 10:02:42;0.00;0.00;0.62;0.00;0.00;0.62;8.40;7.47;;;25.70;37.10;;;;;;2257587;61;20362;-57
2021/08/19 10:05:27;0.00;0.00;0.62;0.00;0.00;0.62;6.63;5.93;;;25.70;37.20;;;;;;2257534;61;20382;-53
2021/08/19 10:08:13;0.00;0.00;0.62;0.00;0.00;0.62;5.80;5.20;;;25.60;37.20;;;;;;2257578;61;20430;-52
2021/08/19 10:11:00;0.00;0.00;0.62;0.00;0.00;0.62;5.87;5.30;;;25.60;37.30;;;;;;2256955;61;20394;-54
2021/08/19 10:13:45;0.00;0.00;0.62;0.00;0.00;0.62;6.53;5.27;;;25.60;37.30;;;;;;2257813;61;20762;-55
2021/08/19 10:16:31;0.00;0.00;0.62;0.00;0.00;0.62;5.10;4.60;;;25.60;37.40;;;;;;2257536;61;20426;-52
2021/08/19 10:19:25;0.00;0.00;0.62;0.00;0.00;0.62;5.95;5.35;;;25.60;37.50;;;;;;2256905;61;20433;-53
2021/08/19 10:22:15;0.00;0.00;0.62;0.00;0.00;0.62;9.90;5.53;;;25.60;37.50;;;;;;2257662;61;20494;-58
2021/08/19 10:25:01;0.00;0.00;0.62;0.00;0.00;0.62;4.87;4.37;;;25.60;37.60;;;;;;2257509;61;20378;-53
2021/08/19 10:27:46;0.00;0.00;0.62;0.00;0.00;0.62;6.43;5.37;;;25.50;37.60;;;;;;2257254;61;20394;-55
2021/08/19 10:30:44;0.00;0.00;0.62;0.00;0.00;0.62;8.30;5.93;;;25.50;37.60;;;;;;2257411;61;20475;-56
2021/08/19 10:33:45;0.00;0.00;0.62;0.00;0.00;0.62;6.90;6.00;;;25.60;37.70;;;;;;2257023;61;20363;-56
2021/08/19 10:36:52;0.00;0.00;0.62;0.00;0.00;0.62;7.30;5.43;;;25.60;37.70;;;;;;2257725;61;20362;-57
2021/08/19 10:39:39;0.00;0.00;0.62;0.00;0.00;0.62;7.77;5.93;;;25.50;37.80;;;;;;2257493;61;20378;-56
2021/08/19 10:42:29;0.00;0.00;0.62;0.00;0.00;0.62;8.33;7.53;;;25.50;37.90;;;;;;2257139;61;20406;-56
2021/08/19 10:45:41;0.00;0.00;0.62;0.00;0.00;0.62;9.53;8.63;;;25.50;38.00;;;;;;2257436;61;20443;-58
2021/08/19 10:48:26;0.00;0.00;0.62;0.00;0.00;0.62;8.27;7.40;;;25.50;38.20;;;;;;2256811;61;20398;-56
2021/08/19 10:51:11;0.00;0.00;0.62;0.00;0.00;0.62;9.10;8.10;;;25.50;38.30;;;;;;2257635;61;20367;-57
2021/08/19 10:53:58;0.00;0.00;0.62;0.00;0.00;0.62;10.63;9.23;;;25.50;38.40;;;;;;2257937;61;20363;-55